Time;durP1;ratioP1;P1;durP2;ratioP2;P2;SDS_P1;SDS_P2;PMS_P1;PMS_P2;Temp;Humidity;BMP_temperature;BMP_pressure;BME280_temperature;BME280_humidity;BME280_pressure;Samples;Min_cycle;Max_cycle;Signal;HPM_P1;HPM_P2
2024/01/30 00:01:42;;;;;;;16.85;11.68;;;6.60;99.90;;;;;;5056398;28;20043;-78
2024/01/30 00:04:08;;;;;;;17.95;11.68;;;6.60;99.90;;;;;;5055767;28;20048;-78
2024/01/30 00:06:33;;;;;;;16.17;10.88;;;6.60;99.90;;;;;;5056508;28;20036;-77
2024/01/30 00:08:59;;;;;;;17.02;11.70;;;6.50;99.90;;;;;;5056096;28;20401;-78
2024/01/30 00:11:28;;;;;;;18.63;11.77;;;6.60;99.90;;;;;;5055994;28;20036;-78
2024/01/30 00:13:56;;;;;;;18.77;12.77;;;6.50;99.90;;;;;;5038731;28;20048;-78
2024/01/30 00:16:24;;;;;;;18.55;12.85;;;6.60;99.90;;;;;;5056166;28;20041;-78
2024/01/30 00:18:50;;;;;;;19.42;12.43;;;6.60;99.90;;;;;;5038701;28;20072;-77
2024/01/30 00:21:16;;;;;;;19.50;13.25;;;6.60;99.90;;;;;;5039896;28;20037;-78
2024/01/30 00:23:42;;;;;;;16.40;11.05;;;6.60;99.90;;;;;;5055058;28;20029;-77
2024/01/30 00:26:07;;;;;;;17.73;11.93;;;6.70;99.90;;;;;;5056834;28;20129;-77
2024/01/30 00:28:33;;;;;;;19.25;13.00;;;6.70;99.90;;;;;;5055477;28;20516;-78
2024/01/30 00:30:58;;;;;;;17.20;12.18;;;6.60;99.90;;;;;;5039657;28;20037;-78
2024/01/30 00:33:24;;;;;;;17.50;12.07;;;6.70;99.90;;;;;;5035664;28;20040;-77
2024/01/30 00:35:49;;;;;;;27.63;12.98;;;6.60;99.90;;;;;;5056222;28;20041;-77
2024/01/30 00:38:15;;;;;;;17.05;12.43;;;6.70;99.90;;;;;;5056475;28;20028;-77
2024/01/30 00:40:41;;;;;;;18.33;12.77;;;6.70;99.90;;;;;;5036272;28;20083;-77
2024/01/30 00:43:06;;;;;;;18.20;12.20;;;6.70;99.90;;;;;;5052379;28;20485;-77
2024/01/30 00:45:32;;;;;;;17.52;12.60;;;6.70;99.90;;;;;;5055412;28;20063;-77
2024/01/30 00:47:58;;;;;;;21.75;13.65;;;6.70;99.90;;;;;;5039631;28;20071;-77
2024/01/30 00:50:23;;;;;;;19.92;12.75;;;6.70;99.90;;;;;;5039286;28;20497;-77
2024/01/30 00:52:49;;;;;;;17.77;12.45;;;6.70;99.90;;;;;;5055135;28;20054;-77
2024/01/30 00:55:14;;;;;;;18.85;12.88;;;6.80;99.90;;;;;;5056094;28;20098;-78
2024/01/30 00:57:40;;;;;;;16.75;12.65;;;6.80;99.90;;;;;;5055248;28;20485;-78
2024/01/30 01:00:08;;;;;;;19.25;12.88;;;6.70;99.90;;;;;;5037711;28;20057;-78
2024/01/30 01:02:35;;;;;;;19.60;12.55;;;6.80;99.90;;;;;;5043967;28;20371;-78
2024/01/30 01:05:00;;;;;;;16.63;12.27;;;6.80;99.90;;;;;;5052590;28;20047;-78
2024/01/30 01:07:26;;;;;;;18.48;12.50;;;6.80;99.90;;;;;;5036277;28;20032;-78
2024/01/30 01:09:51;;;;;;;16.60;11.52;;;6.90;99.90;;;;;;5038100;28;20045;-78
2024/01/30 01:12:17;;;;;;;17.85;12.27;;;6.80;99.90;;;;;;5038387;28;20113;-78
2024/01/30 01:14:43;;;;;;;17.88;12.25;;;6.90;99.90;;;;;;5038971;28;20079;-77
2024/01/30 01:17:08;;;;;;;19.10;11.98;;;6.80;99.90;;;;;;5035740;28;20036;-78
2024/01/30 01:19:34;;;;;;;17.10;11.68;;;6.80;99.90;;;;;;5038617;28;20040;-77
2024/01/30 01:22:00;;;;;;;17.77;12.13;;;6.90;99.90;;;;;;5053837;28;20489;-77
2024/01/30 01:24:25;;;;;;;17.65;12.38;;;6.90;99.90;;;;;;5049897;28;20392;-77
2024/01/30 01:26:51;;;;;;;16.67;11.85;;;6.80;99.90;;;;;;5039006;28;20032;-77
2024/01/30 01:29:17;;;;;;;18.10;12.13;;;6.90;99.90;;;;;;5038991;28;20090;-77
2024/01/30 01:31:45;;;;;;;18.90;11.68;;;6.90;99.90;;;;;;5037876;28;20405;-78
2024/01/30 01:34:12;;;;;;;20.70;12.13;;;6.80;99.90;;;;;;5067002;28;20037;-77
2024/01/30 01:36:38;;;;;;;15.70;10.93;;;6.80;99.90;;;;;;5035401;28;20489;-77
2024/01/30 01:39:04;;;;;;;18.77;12.02;;;6.70;99.90;;;;;;5051455;28;20065;-77
2024/01/30 01:41:31;;;;;;;17.17;12.25;;;6.70;99.90;;;;;;5050842;28;20040;-77
2024/01/30 01:43:57;;;;;;;19.67;12.27;;;6.70;99.90;;;;;;5054152;28;20052;-79
2024/01/30 01:46:23;;;;;;;17.15;12.15;;;6.60;99.90;;;;;;5038849;28;20037;-78
2024/01/30 01:48:49;;;;;;;15.20;10.90;;;6.70;99.90;;;;;;5055223;28;20040;-77
2024/01/30 01:51:16;;;;;;;15.70;11.02;;;6.70;99.90;;;;;;5037562;28;20519;-78
2024/01/30 01:53:42;;;;;;;18.38;11.68;;;6.70;99.90;;;;;;5037617;28;20048;-78
2024/01/30 01:56:08;;;;;;;15.82;11.35;;;6.70;99.90;;;;;;5038446;28;20036;-77
2024/01/30 01:58:33;;;;;;;17.10;11.63;;;6.60;99.90;;;;;;5038346;28;20170;-78
2024/01/30 02:00:59;;;;;;;16.13;11.23;;;6.60;99.90;;;;;;5054272;28;20123;-77
2024/01/30 02:03:25;;;;;;;19.05;12.15;;;6.70;99.90;;;;;;5036651;28;20516;-78
2024/01/30 02:05:51;;;;;;;16.73;11.38;;;6.70;99.90;;;;;;5035901;28;22416;-78
2024/01/30 02:08:17;;;;;;;15.23;10.93;;;6.60;99.90;;;;;;5037682;28;20037;-77
2024/01/30 02:10:43;;;;;;;17.55;11.60;;;6.60;99.90;;;;;;5058897;28;20044;-77
2024/01/30 02:13:08;;;;;;;17.23;11.10;;;6.60;99.90;;;;;;5057385;28;20565;-77
2024/01/30 02:15:34;;;;;;;19.17;11.27;;;6.60;99.90;;;;;;5058092;28;20043;-77
2024/01/30 02:18:00;;;;;;;16.90;11.93;;;6.70;99.90;;;;;;5042709;28;20393;-77
2024/01/30 02:20:28;;;;;;;16.00;11.25;;;6.70;99.90;;;;;;5075798;28;20512;-78
2024/01/30 02:22:55;;;;;;;20.20;10.73;;;6.70;99.90;;;;;;5057137;28;20305;-78
2024/01/30 02:25:33;;;;;;;16.70;11.57;;;6.70;99.90;;;;;;5041232;28;20039;-78
2024/01/30 02:27:59;;;;;;;15.25;10.98;;;6.70;99.90;;;;;;5042319;28;20044;-77
2024/01/30 02:30:24;;;;;;;17.10;10.88;;;6.70;99.90;;;;;;5041854;28;20538;-78
2024/01/30 02:32:50;;;;;;;17.15;11.23;;;6.70;99.90;;;;;;5048655;28;20033;-78
2024/01/30 02:35:16;;;;;;;17.30;10.40;;;6.70;99.90;;;;;;5041098;28;20041;-78
2024/01/30 02:37:41;;;;;;;15.65;11.52;;;6.60;99.90;;;;;;5036470;28;20082;-78
2024/01/30 02:40:07;;;;;;;15.23;11.00;;;6.70;99.90;;;;;;5040792;28;20072;-78
2024/01/30 02:42:33;;;;;;;16.90;10.57;;;6.70;99.90;;;;;;5023989;28;20032;-79
2024/01/30 02:44:58;;;;;;;16.27;10.30;;;6.70;99.90;;;;;;5017197;28;20584;-78
2024/01/30 02:47:25;;;;;;;16.75;10.63;;;6.70;99.90;;;;;;5039361;28;20547;-78
2024/01/30 02:49:50;;;;;;;18.27;10.85;;;6.80;99.90;;;;;;5019278;28;20040;-78
2024/01/30 02:52:16;;;;;;;17.27;11.38;;;6.80;99.90;;;;;;5051207;28;20105;-78
2024/01/30 02:54:41;;;;;;;16.55;10.70;;;6.80;99.90;;;;;;5029450;28;20479;-77
2024/01/30 02:57:08;;;;;;;17.02;10.93;;;6.80;99.90;;;;;;5012856;28;20037;-78
2024/01/30 02:59:35;;;;;;;15.52;10.35;;;6.80;99.90;;;;;;5032536;28;20061;-78
2024/01/30 03:02:01;;;;;;;15.98;11.25;;;6.80;99.90;;;;;;5030522;28;20040;-78
2024/01/30 03:04:27;;;;;;;16.73;11.27;;;6.80;99.90;;;;;;5039158;28;20040;-78
2024/01/30 03:06:52;;;;;;;15.05;11.07;;;6.80;99.90;;;;;;5029369;28;20400;-78
2024/01/30 03:09:18;;;;;;;19.42;10.73;;;6.90;99.90;;;;;;5023536;28;20071;-78
2024/01/30 03:11:44;;;;;;;16.73;11.38;;;6.90;99.90;;;;;;5047900;28;20048;-78
2024/01/30 03:14:12;;;;;;;15.85;10.75;;;6.80;99.90;;;;;;5034231;28;21578;-78
2024/01/30 03:16:38;;;;;;;14.85;9.95;;;6.80;99.90;;;;;;5018406;28;20170;-77
2024/01/30 03:19:07;;;;;;;16.48;10.70;;;6.90;99.90;;;;;;5031451;28;20140;-78
2024/01/30 03:21:33;;;;;;;17.02;10.73;;;6.90;99.90;;;;;;5030576;28;20119;-78
2024/01/30 03:23:59;;;;;;;15.25;10.48;;;6.90;99.90;;;;;;5021258;28;20039;-78
2024/01/30 03:26:25;;;;;;;14.93;9.38;;;7.00;99.90;;;;;;5012985;28;20063;-78
2024/01/30 03:28:50;;;;;;;16.35;10.32;;;7.00;99.90;;;;;;5014546;28;20102;-77
2024/01/30 03:31:16;;;;;;;15.40;10.20;;;7.10;99.90;;;;;;5050940;28;20407;-78
2024/01/30 03:33:42;;;;;;;16.08;10.18;;;7.10;99.90;;;;;;5051629;28;20040;-78
2024/01/30 03:36:08;;;;;;;16.27;10.77;;;7.10;99.90;;;;;;5049385;28;20128;-78
2024/01/30 03:38:35;;;;;;;14.73;10.27;;;7.10;99.90;;;;;;5057211;28;20048;-78
2024/01/30 03:41:00;;;;;;;15.45;10.40;;;7.10;99.90;;;;;;5042028;28;20044;-78
2024/01/30 03:43:26;;;;;;;16.27;10.80;;;7.00;99.90;;;;;;5046925;28;20110;-78
2024/01/30 03:45:52;;;;;;;15.55;10.10;;;7.10;99.90;;;;;;5018526;28;20390;-78
2024/01/30 03:48:18;;;;;;;14.95;10.68;;;7.10;99.90;;;;;;5020829;28;20658;-78
2024/01/30 03:50:44;;;;;;;15.60;11.35;;;7.10;99.90;;;;;;5029248;28;20593;-78
2024/01/30 03:53:09;;;;;;;17.35;11.00;;;7.00;99.90;;;;;;5015519;28;20178;-77
2024/01/30 03:55:35;;;;;;;17.65;11.13;;;7.00;99.90;;;;;;5014032;28;20412;-78
2024/01/30 03:58:01;;;;;;;15.38;10.10;;;7.00;99.90;;;;;;5014276;28;20058;-78
2024/01/30 04:00:26;;;;;;;15.90;10.52;;;7.00;99.90;;;;;;5026177;28;20049;-78
2024/01/30 04:02:52;;;;;;;16.38;10.80;;;7.10;99.90;;;;;;5009118;28;20094;-78
2024/01/30 04:05:17;;;;;;;15.32;9.68;;;7.10;99.90;;;;;;5008985;28;20126;-78
2024/01/30 04:07:43;;;;;;;15.70;10.10;;;7.10;99.90;;;;;;5016712;28;20037;-78
2024/01/30 04:10:09;;;;;;;16.83;10.00;;;7.10;99.90;;;;;;5028919;28;20515;-78
2024/01/30 04:12:36;;;;;;;16.15;10.55;;;7.30;99.90;;;;;;5028600;28;20443;-78
2024/01/30 04:15:03;;;;;;;14.88;10.27;;;7.20;99.90;;;;;;5044309;28;20052;-78
2024/01/30 04:17:29;;;;;;;15.40;9.75;;;7.20;99.90;;;;;;5048657;28;20045;-78
2024/01/30 04:19:54;;;;;;;14.75;10.02;;;7.30;99.90;;;;;;5027686;28;20041;-78
2024/01/30 04:22:20;;;;;;;16.02;9.93;;;7.30;99.90;;;;;;5026685;28;20072;-79
2024/01/30 04:24:46;;;;;;;13.30;9.68;;;7.30;99.90;;;;;;5028453;28;20040;-78
2024/01/30 04:27:12;;;;;;;15.60;9.50;;;7.40;99.90;;;;;;5012498;28;20051;-79
2024/01/30 04:29:37;;;;;;;14.45;9.90;;;7.40;99.90;;;;;;5014724;28;20036;-78
2024/01/30 04:32:04;;;;;;;14.90;9.98;;;7.40;99.90;;;;;;5015975;28;20142;-78
2024/01/30 04:34:29;;;;;;;14.10;8.45;;;7.50;99.90;;;;;;5030173;28;20051;-78
2024/01/30 04:36:55;;;;;;;16.52;9.88;;;7.60;99.90;;;;;;5008629;28;20045;-78
2024/01/30 04:39:20;;;;;;;14.95;10.25;;;7.50;99.90;;;;;;5032875;28;20413;-79
2024/01/30 04:41:46;;;;;;;15.70;10.20;;;7.60;99.90;;;;;;5028122;28;20064;-78
2024/01/30 04:44:12;;;;;;;15.15;9.73;;;7.50;99.90;;;;;;5010951;28;20029;-78
2024/01/30 04:46:37;;;;;;;14.82;10.02;;;7.50;99.90;;;;;;5013599;28;20370;-78
2024/01/30 04:49:03;;;;;;;13.77;9.27;;;7.50;99.90;;;;;;5033222;28;20039;-79
2024/01/30 04:51:29;;;;;;;16.48;9.13;;;7.60;99.90;;;;;;5014613;28;20064;-78
2024/01/30 04:53:55;;;;;;;16.70;9.43;;;7.60;99.90;;;;;;5028543;28;20146;-78
2024/01/30 04:56:21;;;;;;;13.73;9.48;;;7.60;99.90;;;;;;5028311;28;20064;-78
2024/01/30 04:58:47;;;;;;;13.35;9.23;;;7.60;99.90;;;;;;5011505;28;20114;-78
2024/01/30 05:01:18;;;;;;;14.23;9.50;;;7.70;99.90;;;;;;5029388;28;20044;-78
2024/01/30 05:03:44;;;;;;;14.52;9.90;;;7.70;99.90;;;;;;5026664;28;20892;-78
2024/01/30 05:06:10;;;;;;;14.43;9.48;;;7.60;99.90;;;;;;5046757;28;20056;-78
2024/01/30 05:08:38;;;;;;;14.25;9.75;;;7.70;99.90;;;;;;5025570;28;20037;-78
2024/01/30 05:11:07;;;;;;;14.02;9.52;;;7.60;99.90;;;;;;5033643;28;20044;-78
2024/01/30 05:13:33;;;;;;;16.08;10.20;;;7.60;99.90;;;;;;5026305;28;20049;-78
2024/01/30 05:16:01;;;;;;;17.13;10.57;;;7.70;99.90;;;;;;5009296;28;20386;-78
2024/01/30 05:18:27;;;;;;;14.48;10.25;;;7.70;99.90;;;;;;5009592;28;20727;-78
2024/01/30 05:20:52;;;;;;;15.10;10.25;;;7.60;99.90;;;;;;5032916;28;20033;-78
2024/01/30 05:23:18;;;;;;;17.05;9.98;;;7.70;99.90;;;;;;5010331;28;20045;-78
2024/01/30 05:25:43;;;;;;;15.70;10.40;;;7.70;99.90;;;;;;5028251;28;20532;-78
2024/01/30 05:28:09;;;;;;;14.25;9.93;;;7.70;99.90;;;;;;5011748;28;20569;-78
2024/01/30 05:30:35;;;;;;;15.82;9.85;;;7.70;99.90;;;;;;5030921;28;20052;-78
2024/01/30 05:33:00;;;;;;;16.52;9.55;;;7.80;99.90;;;;;;5036042;28;20036;-78
2024/01/30 05:35:26;;;;;;;14.90;9.82;;;7.70;99.90;;;;;;5025924;28;20033;-78
2024/01/30 05:37:51;;;;;;;15.85;10.35;;;7.80;99.90;;;;;;5011764;28;20062;-77
2024/01/30 05:40:17;;;;;;;16.33;10.57;;;7.70;99.90;;;;;;5012969;28;20040;-78
2024/01/30 05:42:43;;;;;;;16.38;9.48;;;7.70;99.90;;;;;;5032348;28;20429;-78
2024/01/30 05:45:09;;;;;;;13.48;9.02;;;7.70;99.90;;;;;;5010673;28;20059;-78
2024/01/30 05:47:35;;;;;;;15.90;9.13;;;7.70;99.90;;;;;;5017601;28;20075;-77
2024/01/30 05:50:01;;;;;;;15.05;8.63;;;7.80;99.90;;;;;;5010102;28;20040;-78
2024/01/30 05:52:26;;;;;;;15.75;9.73;;;7.90;99.90;;;;;;5030722;28;20036;-78
2024/01/30 05:54:52;;;;;;;14.20;8.68;;;7.80;99.90;;;;;;5012305;28;20047;-78
2024/01/30 05:57:17;;;;;;;13.60;8.00;;;7.90;99.90;;;;;;5044085;28;20471;-78
2024/01/30 05:59:44;;;;;;;14.68;8.93;;;7.90;99.90;;;;;;5012510;28;20074;-77
2024/01/30 06:02:13;;;;;;;18.17;9.00;;;7.90;99.90;;;;;;4984669;28;20041;-77
2024/01/30 06:04:39;;;;;;;12.68;8.48;;;8.00;99.90;;;;;;5011434;28;20037;-77
2024/01/30 06:07:06;;;;;;;14.70;9.57;;;7.90;99.90;;;;;;4985657;28;20037;-78
2024/01/30 06:09:32;;;;;;;15.80;9.68;;;7.90;99.90;;;;;;5004524;28;20041;-78
2024/01/30 06:11:58;;;;;;;16.45;9.93;;;7.90;99.90;;;;;;5002621;28;20321;-78
2024/01/30 06:14:24;;;;;;;15.82;10.05;;;7.90;99.90;;;;;;4994148;28;20642;-78
2024/01/30 06:16:49;;;;;;;14.00;9.32;;;7.80;99.90;;;;;;4987300;28;20046;-78
2024/01/30 06:19:15;;;;;;;15.30;9.40;;;7.80;99.90;;;;;;5004268;28;20731;-77
2024/01/30 06:21:41;;;;;;;15.73;9.27;;;7.80;99.90;;;;;;4986599;28;20530;-79
2024/01/30 06:24:07;;;;;;;13.98;9.85;;;7.90;99.90;;;;;;4994858;28;20041;-78
2024/01/30 06:26:32;;;;;;;15.40;9.38;;;7.80;99.90;;;;;;5004668;28;20077;-78
2024/01/30 06:28:58;;;;;;;17.08;10.32;;;7.80;99.90;;;;;;4990798;28;20402;-78
2024/01/30 06:31:24;;;;;;;15.93;9.45;;;7.90;99.90;;;;;;5021585;28;20068;-78
2024/01/30 06:33:50;;;;;;;17.50;10.68;;;7.80;99.90;;;;;;5008533;28;20041;-78
2024/01/30 06:36:16;;;;;;;13.38;8.48;;;7.80;99.90;;;;;;4997315;28;20050;-78
2024/01/30 06:38:41;;;;;;;14.45;9.73;;;7.80;99.90;;;;;;5009622;28;20040;-78
2024/01/30 06:41:07;;;;;;;16.73;9.90;;;7.80;99.90;;;;;;4993549;28;20428;-78
2024/01/30 06:43:33;;;;;;;14.07;8.98;;;7.80;99.90;;;;;;5003883;28;20060;-77
2024/01/30 06:45:59;;;;;;;14.48;9.52;;;7.90;99.90;;;;;;4988565;28;20045;-78
2024/01/30 06:48:25;;;;;;;15.23;9.38;;;7.90;99.90;;;;;;5003320;28;21376;-78
2024/01/30 06:50:53;;;;;;;14.00;9.48;;;7.90;99.90;;;;;;5006795;28;20045;-78
2024/01/30 06:53:19;;;;;;;17.83;10.43;;;7.90;99.90;;;;;;4987642;28;20049;-78
2024/01/30 06:55:45;;;;;;;15.13;9.43;;;7.90;99.90;;;;;;5005018;28;20042;-78
2024/01/30 06:58:11;;;;;;;16.10;9.75;;;7.80;99.90;;;;;;5000439;28;20033;-78
2024/01/30 07:00:36;;;;;;;16.55;10.13;;;7.80;99.90;;;;;;5006115;28;20085;-77
2024/01/30 07:03:02;;;;;;;16.63;9.70;;;7.90;99.90;;;;;;4994046;28;20120;-78
2024/01/30 07:05:28;;;;;;;15.02;9.82;;;7.80;99.90;;;;;;4995878;28;20187;-77
2024/01/30 07:07:53;;;;;;;15.23;10.07;;;7.80;99.90;;;;;;5008750;28;20069;-78
2024/01/30 07:10:19;;;;;;;15.35;9.70;;;7.80;99.90;;;;;;5011339;28;20042;-78
2024/01/30 07:12:44;;;;;;;14.27;9.52;;;7.80;99.90;;;;;;4996543;28;20042;-77
2024/01/30 07:15:10;;;;;;;14.52;8.32;;;7.70;99.90;;;;;;5020859;28;20107;-77
2024/01/30 07:17:36;;;;;;;11.65;8.13;;;7.80;99.90;;;;;;5033332;28;20056;-77
2024/01/30 07:20:03;;;;;;;14.60;8.63;;;7.90;99.90;;;;;;5015939;28;20555;-78
2024/01/30 07:22:30;;;;;;;15.05;9.80;;;8.00;99.90;;;;;;5033538;28;20037;-77
2024/01/30 07:24:56;;;;;;;14.30;9.45;;;8.00;99.90;;;;;;5016231;28;20044;-78
2024/01/30 07:27:21;;;;;;;17.13;10.13;;;7.90;99.90;;;;;;5034279;28;20037;-78
2024/01/30 07:29:47;;;;;;;15.02;9.32;;;7.90;99.90;;;;;;5034703;28;20033;-78
2024/01/30 07:32:13;;;;;;;15.23;8.27;;;8.00;99.90;;;;;;5018025;28;20048;-78
2024/01/30 07:34:38;;;;;;;15.93;10.63;;;8.00;99.90;;;;;;5031372;28;20032;-77
2024/01/30 07:37:04;;;;;;;14.25;9.90;;;8.00;99.90;;;;;;5002467;28;20037;-78
2024/01/30 07:39:29;;;;;;;14.52;9.55;;;8.00;99.90;;;;;;5034400;28;20045;-77
2024/01/30 07:41:55;;;;;;;14.75;9.50;;;8.00;99.90;;;;;;5034445;28;20406;-78
2024/01/30 07:44:21;;;;;;;16.00;9.50;;;8.00;99.90;;;;;;5016401;28;20069;-77
2024/01/30 07:46:47;;;;;;;15.38;10.10;;;7.90;99.90;;;;;;5034253;28;20037;-77
2024/01/30 07:49:14;;;;;;;17.80;9.85;;;7.90;99.90;;;;;;5034435;28;20033;-77
2024/01/30 07:51:39;;;;;;;14.52;9.82;;;7.80;99.90;;;;;;5017944;28;20091;-77
2024/01/30 07:54:14;;;;;;;16.15;9.50;;;7.80;99.90;;;;;;5016655;28;20041;-77
2024/01/30 07:56:40;;;;;;;17.08;10.00;;;7.80;99.90;;;;;;5033852;28;20049;-77
2024/01/30 07:59:10;;;;;;;14.88;9.43;;;7.80;99.90;;;;;;5039556;28;20441;-77
2024/01/30 08:01:35;;;;;;;18.27;9.35;;;7.80;99.90;;;;;;5053846;28;20033;-77
2024/01/30 08:04:01;;;;;;;15.45;9.45;;;7.80;99.90;;;;;;5050345;28;20086;-77
2024/01/30 08:06:26;;;;;;;15.00;10.10;;;7.90;99.90;;;;;;5033903;28;20037;-77
2024/01/30 08:08:53;;;;;;;13.43;9.73;;;7.90;99.90;;;;;;5017276;28;20045;-77
2024/01/30 08:11:25;;;;;;;16.40;10.00;;;8.00;99.90;;;;;;5033799;28;20081;-77
2024/01/30 08:13:52;;;;;;;15.02;8.85;;;8.00;99.90;;;;;;5017288;28;20049;-77
2024/01/30 08:16:17;;;;;;;16.05;9.93;;;8.00;99.90;;;;;;5009767;28;20098;-77
2024/01/30 08:18:43;;;;;;;14.73;9.25;;;8.00;99.90;;;;;;5033597;28;20033;-77
2024/01/30 08:21:09;;;;;;;13.55;8.75;;;8.00;99.90;;;;;;5033519;28;20077;-77
2024/01/30 08:23:35;;;;;;;12.98;8.77;;;8.10;99.90;;;;;;5016983;28;20118;-77
2024/01/30 08:26:00;;;;;;;15.13;8.65;;;8.10;99.90;;;;;;5025999;28;20052;-77
2024/01/30 08:28:26;;;;;;;13.40;9.00;;;8.20;99.90;;;;;;5033369;28;20053;-77
2024/01/30 08:30:52;;;;;;;13.70;8.38;;;8.20;99.90;;;;;;5017248;28;20052;-77
2024/01/30 08:33:18;;;;;;;13.40;7.95;;;8.30;99.90;;;;;;5033663;28;20417;-77
2024/01/30 08:35:43;;;;;;;17.02;8.63;;;8.40;99.90;;;;;;5015591;28;20041;-77
2024/01/30 08:38:09;;;;;;;14.65;8.43;;;8.40;99.90;;;;;;5016788;28;20052;-77
2024/01/30 08:40:35;;;;;;;14.60;9.30;;;8.30;99.90;;;;;;5016697;28;20456;-77
2024/01/30 08:43:01;;;;;;;14.63;8.90;;;8.30;99.90;;;;;;5033124;28;20071;-77
2024/01/30 08:45:26;;;;;;;14.65;9.13;;;8.40;99.90;;;;;;5033358;28;20091;-77
2024/01/30 08:47:52;;;;;;;14.65;9.02;;;8.40;99.90;;;;;;5031858;28;20373;-78
2024/01/30 08:50:17;;;;;;;12.90;8.20;;;8.40;99.90;;;;;;5033184;28;20128;-77
2024/01/30 08:52:43;;;;;;;13.82;8.80;;;8.40;99.90;;;;;;5016839;28;20122;-77
2024/01/30 08:55:09;;;;;;;13.35;8.20;;;8.50;99.90;;;;;;5033079;28;20044;-77
2024/01/30 08:57:35;;;;;;;12.77;7.75;;;8.50;99.90;;;;;;5045123;28;20477;-77
2024/01/30 09:00:04;;;;;;;14.65;7.40;;;8.70;99.90;;;;;;5052588;28;20088;-77
2024/01/30 09:02:29;;;;;;;14.60;7.43;;;8.80;99.90;;;;;;5052766;28;20041;-76
2024/01/30 09:04:55;;;;;;;11.82;7.68;;;8.80;99.90;;;;;;5036184;28;20044;-77
2024/01/30 09:07:21;;;;;;;13.60;8.95;;;8.80;99.90;;;;;;5033617;28;20036;-77
2024/01/30 09:09:46;;;;;;;14.88;9.15;;;8.80;99.90;;;;;;5035624;28;20116;-77
2024/01/30 09:12:12;;;;;;;11.88;7.10;;;8.80;99.90;;;;;;5015014;28;20045;-75
2024/01/30 09:14:40;;;;;;;14.57;9.25;;;8.90;99.90;;;;;;5007727;28;20033;-77
2024/01/30 09:17:05;;;;;;;13.35;7.70;;;9.10;99.90;;;;;;5031314;28;20482;-77
2024/01/30 09:19:31;;;;;;;12.07;7.28;;;9.10;99.90;;;;;;5016660;28;20043;-77
2024/01/30 09:21:57;;;;;;;16.98;8.52;;;9.10;99.90;;;;;;5016030;28;20041;-77
2024/01/30 09:24:22;;;;;;;14.27;7.65;;;9.20;99.90;;;;;;5014800;28;20143;-77
2024/01/30 09:26:48;;;;;;;13.52;7.50;;;9.30;99.90;;;;;;5029951;28;20056;-77
2024/01/30 09:29:13;;;;;;;13.95;7.93;;;9.30;99.90;;;;;;5032419;28;20506;-77
2024/01/30 09:31:39;;;;;;;14.70;8.30;;;9.40;99.90;;;;;;5032332;28;20052;-77
2024/01/30 09:34:05;;;;;;;12.25;7.47;;;9.40;99.90;;;;;;5014991;28;20126;-77
2024/01/30 09:36:32;;;;;;;12.73;7.15;;;9.40;99.90;;;;;;5015759;28;20217;-77
2024/01/30 09:38:58;;;;;;;13.30;7.90;;;9.40;99.90;;;;;;5017882;28;20453;-76
2024/01/30 09:41:25;;;;;;;14.77;8.05;;;9.50;99.90;;;;;;5017961;28;20069;-77
2024/01/30 09:43:51;;;;;;;12.40;7.35;;;9.50;99.90;;;;;;5021501;28;20049;-76
2024/01/30 09:46:20;;;;;;;14.02;8.23;;;9.50;99.90;;;;;;5015614;28;20535;-76
2024/01/30 09:48:49;;;;;;;12.90;8.07;;;9.60;99.90;;;;;;5004666;28;20093;-77
2024/01/30 09:51:16;;;;;;;14.57;7.78;;;9.60;99.90;;;;;;5015769;28;20425;-77
2024/01/30 09:53:43;;;;;;;12.65;8.63;;;9.60;99.90;;;;;;5031892;28;20486;-77
2024/01/30 09:56:09;;;;;;;12.55;7.45;;;9.70;99.90;;;;;;5031910;28;20081;-77
2024/01/30 09:58:35;;;;;;;14.73;8.50;;;9.80;99.90;;;;;;5015141;28;20062;-77
2024/01/30 10:01:00;;;;;;;12.52;8.07;;;9.80;99.90;;;;;;5054827;28;20120;-77
2024/01/30 10:03:26;;;;;;;11.82;7.63;;;9.80;99.90;;;;;;5055090;28;20115;-77
2024/01/30 10:05:52;;;;;;;14.43;8.75;;;9.80;99.90;;;;;;5037560;28;20477;-76
2024/01/30 10:08:21;;;;;;;15.18;8.30;;;9.90;99.90;;;;;;5033416;28;20037;-76
2024/01/30 10:10:49;;;;;;;14.90;8.05;;;10.00;99.90;;;;;;5035961;28;20044;-77
2024/01/30 10:13:16;;;;;;;16.10;8.48;;;9.80;99.90;;;;;;5055140;28;20059;-77
2024/01/30 10:15:42;;;;;;;15.18;7.50;;;9.90;99.90;;;;;;5047327;28;20697;-77
2024/01/30 10:18:10;;;;;;;11.60;6.72;;;9.90;99.90;;;;;;5028589;28;21183;-76
2024/01/30 10:20:36;;;;;;;14.38;7.75;;;10.10;99.90;;;;;;5043876;28;20124;-76
2024/01/30 10:23:02;;;;;;;13.75;8.02;;;10.10;99.90;;;;;;5049624;28;20093;-77
2024/01/30 10:25:28;;;;;;;15.07;7.43;;;10.10;99.90;;;;;;5054120;28;20497;-77
2024/01/30 10:27:55;;;;;;;12.90;7.80;;;10.20;99.90;;;;;;5018952;28;20094;-77
2024/01/30 10:30:24;;;;;;;13.15;7.65;;;10.20;99.90;;;;;;5028167;28;20493;-77
2024/01/30 10:32:51;;;;;;;17.15;8.60;;;10.20;99.90;;;;;;5036663;28;20078;-77
2024/01/30 10:35:16;;;;;;;10.85;6.50;;;10.20;99.90;;;;;;5052537;28;20048;-77
2024/01/30 10:37:44;;;;;;;13.02;8.75;;;10.20;99.90;;;;;;5022521;28;20043;-77
2024/01/30 10:40:13;;;;;;;15.30;7.68;;;10.30;99.90;;;;;;5073781;28;20044;-76
2024/01/30 10:42:43;;;;;;;13.00;8.18;;;10.30;99.90;;;;;;5046739;28;20064;-76
2024/01/30 10:45:14;;;;;;;13.10;7.88;;;10.30;99.90;;;;;;5030238;28;20537;-76
2024/01/30 10:47:50;;;;;;;10.15;6.47;;;10.40;99.90;;;;;;5056903;28;20105;-76
2024/01/30 10:50:16;;;;;;;18.40;7.93;;;10.50;99.90;;;;;;5055894;28;20070;-76
2024/01/30 10:52:43;;;;;;;13.23;6.28;;;10.60;99.90;;;;;;5047545;28;20055;-76
2024/01/30 10:55:10;;;;;;;12.07;5.88;;;10.60;99.90;;;;;;5043976;28;20050;-76
2024/01/30 10:57:37;;;;;;;15.48;7.35;;;10.60;99.90;;;;;;5028376;28;20033;-76
2024/01/30 11:00:09;;;;;;;16.10;8.93;;;10.70;99.90;;;;;;5046649;28;20140;-76
2024/01/30 11:02:46;;;;;;;14.88;8.38;;;10.70;99.90;;;;;;5052949;28;20090;-76
2024/01/30 11:05:12;;;;;;;14.60;7.78;;;10.60;99.90;;;;;;5058224;28;20068;-77
2024/01/30 11:07:41;;;;;;;11.20;5.88;;;10.60;99.90;;;;;;5052529;28;20053;-77
2024/01/30 11:10:09;;;;;;;12.32;7.22;;;10.70;99.90;;;;;;5053474;28;20488;-77
2024/01/30 11:12:43;;;;;;;16.25;9.25;;;10.70;99.90;;;;;;5037475;28;20093;-76
2024/01/30 11:15:10;;;;;;;14.15;9.15;;;10.70;99.90;;;;;;5038739;28;20127;-76
2024/01/30 11:17:40;;;;;;;14.43;7.93;;;10.60;99.90;;;;;;5056643;28;20032;-77
2024/01/30 11:20:10;;;;;;;10.45;5.88;;;10.60;99.90;;;;;;5053309;28;20047;-76
2024/01/30 11:22:36;;;;;;;13.05;5.47;;;10.70;99.90;;;;;;5061445;28;20033;-76
2024/01/30 11:25:03;;;;;;;13.82;6.80;;;10.80;99.90;;;;;;5052892;28;20502;-76
2024/01/30 11:27:31;;;;;;;13.68;7.72;;;10.90;99.90;;;;;;5045665;28;20519;-76
2024/01/30 11:30:02;;;;;;;13.32;8.80;;;10.80;99.90;;;;;;5037602;28;20037;-76
2024/01/30 11:32:28;;;;;;;16.47;9.77;;;10.80;99.90;;;;;;5036681;28;20115;-76
2024/01/30 11:34:55;;;;;;;13.52;7.50;;;10.70;99.90;;;;;;5052518;28;20123;-76
2024/01/30 11:37:24;;;;;;;17.25;9.43;;;10.80;99.90;;;;;;5055968;28;20067;-76
2024/01/30 11:39:51;;;;;;;14.05;8.55;;;10.70;99.90;;;;;;5038915;28;20595;-76
2024/01/30 11:42:17;;;;;;;16.02;9.45;;;10.70;99.90;;;;;;5024353;28;20051;-77
2024/01/30 11:44:47;;;;;;;16.42;10.65;;;10.70;99.90;;;;;;5029504;28;20045;-76
2024/01/30 11:47:13;;;;;;;18.00;10.68;;;10.70;99.90;;;;;;5038092;28;20072;-76
2024/01/30 11:49:39;;;;;;;13.40;9.15;;;10.70;99.90;;;;;;5038128;28;20392;-76
2024/01/30 11:52:05;;;;;;;15.48;7.40;;;10.60;99.90;;;;;;5053942;28;20044;-76
2024/01/30 11:54:31;;;;;;;15.10;9.85;;;10.70;99.90;;;;;;5053248;28;20083;-77
2024/01/30 11:56:57;;;;;;;13.93;8.63;;;10.70;99.90;;;;;;5053553;28;20047;-76
2024/01/30 11:59:22;;;;;;;15.68;10.27;;;10.60;99.90;;;;;;5032893;28;20414;-76
2024/01/30 12:01:48;;;;;;;19.17;11.68;;;10.70;99.90;;;;;;5044706;28;20088;-77
2024/01/30 12:04:15;;;;;;;20.20;11.45;;;10.70;99.90;;;;;;5052102;28;20049;-77
2024/01/30 12:06:41;;;;;;;18.65;12.63;;;10.70;99.90;;;;;;5076323;28;20036;-77
2024/01/30 12:09:10;;;;;;;17.80;11.60;;;10.60;99.90;;;;;;5055711;28;20040;-77
2024/01/30 12:11:46;;;;;;;21.45;11.40;;;10.40;99.90;;;;;;5034795;28;20033;-77
2024/01/30 12:14:12;;;;;;;19.08;9.90;;;10.40;99.90;;;;;;5060183;28;20048;-77
2024/01/30 12:16:37;;;;;;;16.63;8.50;;;10.30;99.90;;;;;;5032119;28;20040;-76
2024/01/30 12:19:03;;;;;;;21.00;8.63;;;10.30;99.90;;;;;;5036013;28;20038;-77
2024/01/30 12:21:30;;;;;;;18.65;7.90;;;10.30;99.90;;;;;;5025932;28;20165;-77
2024/01/30 12:23:57;;;;;;;20.17;7.78;;;10.20;99.90;;;;;;5061391;28;20033;-77
2024/01/30 12:26:25;;;;;;;17.80;8.00;;;10.20;99.90;;;;;;5032104;28;20493;-77
2024/01/30 12:28:54;;;;;;;12.43;5.28;;;10.10;99.90;;;;;;5019895;28;20037;-77
2024/01/30 12:31:27;;;;;;;13.50;5.90;;;10.00;99.90;;;;;;5055095;28;20067;-76
2024/01/30 12:33:53;;;;;;;14.50;5.53;;;10.10;99.90;;;;;;5047173;28;20041;-77
2024/01/30 12:36:18;;;;;;;13.30;4.90;;;10.10;99.90;;;;;;5054128;28;20051;-76